Time,TemperatureF,DewpointF,PressureIn,WindDirection,WindDirectionDegrees,WindSpeedMPH,WindSpeedGustMPH,Humidity,HourlyPrecipIn,Conditions,Clouds,dailyrainin,SolarRadiationWatts/m^2,SoftwareType,DateUTC
2013-09-11 00:02:00,63.9,59.9,29.95,South,188,0.0,1.0,87,0.00,,,0.00,0,HR-IXP-WINDi_r2_v1.2,2013-09-11 07:02:00,
2013-09-11 00:07:00,64.0,60.0,29.95,South,188,0.0,1.0,87,0.00,,,0.00,0,HR-IXP-WINDi_r2_v1.2,2013-09-11 07:07:00,
2013-09-11 00:12:00,63.9,59.6,29.95,South,188,1.0,1.0,86,0.00,,,0.00,0,HR-IXP-WINDi_r2_v1.2,2013-09-11 07:12:00,
2013-09-11 00:17:00,63.7,59.7,29.95,South,188,0.0,1.0,87,0.00,,,0.00,0,HR-IXP-WINDi_r2_v1.2,2013-09-11 07:17:00,
2013-09-11 00:22:00,63.6,59.6,29.95,South,188,0.0,1.0,87,0.00,,,0.00,0,HR-IXP-WINDi_r2_v1.2,2013-09-11 07:22:00,
2013-09-11 00:27:00,63.6,59.6,29.95,South,188,0.0,1.0,87,0.00,,,0.00,0,HR-IXP-WINDi_r2_v1.2,2013-09-11 07:27:00,
2013-09-11 00:32:00,63.7,59.7,29.95,South,188,0.0,1.0,87,0.00,,,0.00,0,HR-IXP-WINDi_r2_v1.2,2013-09-11 07:32:00,
2013-09-11 00:38:00,63.6,59.6,29.95,South,188,0.0,1.0,87,0.00,,,0.00,0,HR-IXP-WINDi_r2_v1.2,2013-09-11 07:38:00,
2013-09-11 00:43:00,63.7,59.7,29.95,South,188,0.0,1.0,87,0.00,,,0.00,0,HR-IXP-WINDi_r2_v1.2,2013-09-11 07:43:00,
2013-09-11 00:48:00,63.6,59.6,29.95,South,188,0.0,0.0,87,0.00,,,0.00,0,HR-IXP-WINDi_r2_v1.2,2013-09-11 07:48:00,
2013-09-11 00:53:00,63.8,59.8,29.96,South,188,0.0,0.0,87,0.00,,,0.00,0,HR-IXP-WINDi_r2_v1.2,2013-09-11 07:53:00,
2013-09-11 00:59:00,63.7,59.7,29.96,South,188,0.0,0.0,87,0.00,,,0.00,0,HR-IXP-WINDi_r2_v1.2,2013-09-11 07:59:00,
2013-09-11 01:04:00,63.7,59.7,29.96,South,188,0.0,0.0,87,0.00,,,0.00,0,HR-IXP-WINDi_r2_v1.2,2013-09-11 08:04:00,
2013-09-11 01:09:00,63.7,59.7,29.96,South,188,0.0,0.0,87,0.00,,,0.00,0,HR-IXP-WINDi_r2_v1.2,2013-09-11 08:09:00,
2013-09-11 01:14:00,63.6,59.6,29.96,South,188,0.0,0.0,87,0.00,,,0.00,0,HR-IXP-WINDi_r2_v1.2,2013-09-11 08:14:00,
2013-09-11 01:19:00,63.6,59.9,29.96,South,188,0.0,0.0,88,0.00,,,0.00,0,HR-IXP-WINDi_r2_v1.2,2013-09-11 08:19:00,
2013-09-11 01:24:00,63.6,59.6,29.96,South,188,0.0,0.0,87,0.00,,,0.00,0,HR-IXP-WINDi_r2_v1.2,2013-09-11 08:24:00,
2013-09-11 01:30:00,63.7,60.0,29.96,South,188,0.0,0.0,88,0.00,,,0.00,0,HR-IXP-WINDi_r2_v1.2,2013-09-11 08:30:00,
2013-09-11 01:35:00,63.6,59.6,29.96,South,188,0.0,0.0,87,0.00,,,0.00,0,HR-IXP-WINDi_r2_v1.2,2013-09-11 08:35:00,
2013-09-11 01:40:00,63.6,59.9,29.95,South,188,0.0,0.0,88,0.00,,,0.00,0,HR-IXP-WINDi_r2_v1.2,2013-09-11 08:40:00,
2013-09-11 01:45:00,63.6,59.9,29.95,South,188,0.0,1.0,88,0.00,,,0.00,0,HR-IXP-WINDi_r2_v1.2,2013-09-11 08:45:00,
2013-09-11 01:50:00,63.4,59.7,29.95,South,188,0.0,1.0,88,0.00,,,0.00,0,HR-IXP-WINDi_r2_v1.2,2013-09-11 08:50:00,
2013-09-11 01:55:00,63.3,59.6,29.95,South,188,0.0,1.0,88,0.00,,,0.00,0,HR-IXP-WINDi_r2_v1.2,2013-09-11 08:55:00,
2013-09-11 02:00:00,63.3,59.9,29.95,South,188,0.0,0.0,89,0.00,,,0.00,0,HR-IXP-WINDi_r2_v1.2,2013-09-11 09:00:00,
2013-09-11 02:05:00,63.4,59.7,29.95,South,188,0.0,0.0,88,0.00,,,0.00,0,HR-IXP-WINDi_r2_v1.2,2013-09-11 09:05:00,
2013-09-11 02:10:00,63.4,60.0,29.95,South,188,0.0,0.0,89,0.00,,,0.00,0,HR-IXP-WINDi_r2_v1.2,2013-09-11 09:10:00,
2013-09-11 02:16:00,63.2,59.8,29.95,South,188,0.0,0.0,89,0.00,,,0.00,0,HR-IXP-WINDi_r2_v1.2,2013-09-11 09:16:00,
2013-09-11 02:21:00,62.9,59.2,29.95,South,188,0.0,1.0,88,0.00,,,0.00,0,HR-IXP-WINDi_r2_v1.2,2013-09-11 09:21:00,
2013-09-11 02:26:00,62.9,59.5,29.95,South,188,0.0,1.0,89,0.00,,,0.00,0,HR-IXP-WINDi_r2_v1.2,2013-09-11 09:26:00,
2013-09-11 02:32:00,62.9,59.5,29.95,South,188,0.0,1.0,89,0.00,,,0.00,0,HR-IXP-WINDi_r2_v1.2,2013-09-11 09:32:00,
2013-09-11 02:37:00,62.8,59.4,29.95,South,188,0.0,1.0,89,0.00,,,0.00,0,HR-IXP-WINDi_r2_v1.2,2013-09-11 09:37:00,
2013-09-11 02:42:00,62.9,59.9,29.95,South,188,0.0,1.0,90,0.00,,,0.00,0,HR-IXP-WINDi_r2_v1.2,2013-09-11 09:42:00,
2013-09-11 02:47:00,62.9,59.9,29.95,South,188,0.0,1.0,90,0.00,,,0.00,0,HR-IXP-WINDi_r2_v1.2,2013-09-11 09:47:00,
2013-09-11 02:52:00,62.9,59.9,29.95,South,188,0.0,0.0,90,0.00,,,0.00,0,HR-IXP-WINDi_r2_v1.2,2013-09-11 09:52:00,
2013-09-11 02:57:00,62.8,59.8,29.95,South,188,0.0,0.0,90,0.00,,,0.00,0,HR-IXP-WINDi_r2_v1.2,2013-09-11 09:57:00,
2013-09-11 03:03:00,62.9,59.9,29.95,South,188,0.0,0.0,90,0.00,,,0.00,0,HR-IXP-WINDi_r2_v1.2,2013-09-11 10:03:00,
2013-09-11 03:08:00,62.8,59.8,29.95,South,188,0.0,0.0,90,0.00,,,0.00,0,HR-IXP-WINDi_r2_v1.2,2013-09-11 10:08:00,
2013-09-11 03:13:00,62.7,59.7,29.95,South,188,0.0,1.0,90,0.00,,,0.00,0,HR-IXP-WINDi_r2_v1.2,2013-09-11 10:13:00,
2013-09-11 03:18:00,62.7,59.7,29.95,South,188,0.0,1.0,90,0.00,,,0.00,0,HR-IXP-WINDi_r2_v1.2,2013-09-11 10:18:00,
2013-09-11 03:24:00,62.6,59.6,29.95,South,188,0.0,0.0,90,0.00,,,0.00,0,HR-IXP-WINDi_r2_v1.2,2013-09-11 10:24:00,
2013-09-11 03:29:00,62.6,59.6,29.95,South,188,0.0,0.0,90,0.00,,,0.00,0,HR-IXP-WINDi_r2_v1.2,2013-09-11 10:29:00,
2013-09-11 03:34:00,62.5,59.5,29.95,South,188,0.0,0.0,90,0.00,,,0.00,0,HR-IXP-WINDi_r2_v1.2,2013-09-11 10:34:00,
2013-09-11 03:39:00,62.6,59.6,29.95,South,188,0.0,0.0,90,0.00,,,0.00,0,HR-IXP-WINDi_r2_v1.2,2013-09-11 10:39:00,
2013-09-11 03:45:00,62.7,59.7,29.96,South,188,0.0,0.0,90,0.00,,,0.00,0,HR-IXP-WINDi_r2_v1.2,2013-09-11 10:45:00,
2013-09-11 03:50:00,62.6,59.6,29.96,South,188,0.0,0.0,90,0.00,,,0.00,0,HR-IXP-WINDi_r2_v1.2,2013-09-11 10:50:00,
2013-09-11 03:55:00,62.6,59.6,29.95,South,188,0.0,0.0,90,0.00,,,0.00,0,HR-IXP-WINDi_r2_v1.2,2013-09-11 10:55:00,
2013-09-11 04:00:00,62.5,59.5,29.96,South,188,0.0,0.0,90,0.00,,,0.00,0,HR-IXP-WINDi_r2_v1.2,2013-09-11 11:00:00,
2013-09-11 04:06:00,62.4,59.4,29.96,South,188,0.0,0.0,90,0.00,,,0.00,0,HR-IXP-WINDi_r2_v1.2,2013-09-11 11:06:00,
2013-09-11 04:11:00,62.3,59.3,29.95,South,188,0.0,0.0,90,0.00,,,0.00,0,HR-IXP-WINDi_r2_v1.2,2013-09-11 11:11:00,
2013-09-11 04:16:00,62.3,59.6,29.96,South,188,0.0,0.0,91,0.00,,,0.00,0,HR-IXP-WINDi_r2_v1.2,2013-09-11 11:16:00,
2013-09-11 04:21:00,62.3,59.6,29.96,South,188,0.0,0.0,91,0.00,,,0.00,0,HR-IXP-WINDi_r2_v1.2,2013-09-11 11:21:00,
2013-09-11 04:26:00,62.4,59.7,29.95,South,188,0.0,0.0,91,0.00,,,0.00,0,HR-IXP-WINDi_r2_v1.2,2013-09-11 11:26:00,
2013-09-11 04:31:00,62.4,59.7,29.95,South,188,0.0,0.0,91,0.00,,,0.00,0,HR-IXP-WINDi_r2_v1.2,2013-09-11 11:31:00,
2013-09-11 04:36:00,62.4,59.7,29.95,South,188,0.0,0.0,91,0.00,,,0.00,0,HR-IXP-WINDi_r2_v1.2,2013-09-11 11:36:00,
2013-09-11 04:42:00,62.3,59.6,29.96,South,188,0.0,0.0,91,0.00,,,0.00,0,HR-IXP-WINDi_r2_v1.2,2013-09-11 11:42:00,
2013-09-11 04:47:00,62.3,59.6,29.96,South,188,0.0,0.0,91,0.00,,,0.00,0,HR-IXP-WINDi_r2_v1.2,2013-09-11 11:47:00,
2013-09-11 04:52:00,62.3,59.6,29.96,South,188,0.0,0.0,91,0.00,,,0.00,0,HR-IXP-WINDi_r2_v1.2,2013-09-11 11:52:00,
2013-09-11 04:57:00,62.3,59.6,29.96,South,188,0.0,0.0,91,0.00,,,0.00,0,HR-IXP-WINDi_r2_v1.2,2013-09-11 11:57:00,
2013-09-11 05:03:00,62.2,59.5,29.96,South,188,0.0,0.0,91,0.00,,,0.00,0,HR-IXP-WINDi_r2_v1.2,2013-09-11 12:03:00,
2013-09-11 05:08:00,62.3,59.6,29.96,South,188,0.0,0.0,91,0.00,,,0.00,0,HR-IXP-WINDi_r2_v1.2,2013-09-11 12:08:00,
2013-09-11 05:13:00,62.4,59.7,29.96,South,188,0.0,0.0,91,0.00,,,0.00,0,HR-IXP-WINDi_r2_v1.2,2013-09-11 12:13:00,
2013-09-11 05:18:00,62.5,59.8,29.96,South,188,0.0,0.0,91,0.00,,,0.00,0,HR-IXP-WINDi_r2_v1.2,2013-09-11 12:18:00,
2013-09-11 05:23:00,62.3,59.6,29.96,South,188,0.0,0.0,91,0.00,,,0.00,0,HR-IXP-WINDi_r2_v1.2,2013-09-11 12:23:00,
2013-09-11 05:29:00,62.3,59.6,29.97,South,188,0.0,0.0,91,0.00,,,0.00,0,HR-IXP-WINDi_r2_v1.2,2013-09-11 12:29:00,
2013-09-11 05:34:00,62.2,59.5,29.97,South,188,0.0,0.0,91,0.00,,,0.00,0,HR-IXP-WINDi_r2_v1.2,2013-09-11 12:34:00,
2013-09-11 05:39:00,62.0,59.3,29.97,South,188,0.0,0.0,91,0.00,,,0.00,0,HR-IXP-WINDi_r2_v1.2,2013-09-11 12:39:00,
2013-09-11 05:44:00,62.0,59.3,29.97,South,188,0.0,0.0,91,0.00,,,0.00,0,HR-IXP-WINDi_r2_v1.2,2013-09-11 12:44:00,
2013-09-11 05:50:00,62.1,59.4,29.98,South,188,0.0,0.0,91,0.00,,,0.00,0,HR-IXP-WINDi_r2_v1.2,2013-09-11 12:50:00,
2013-09-11 05:55:00,62.1,59.4,29.98,South,188,0.0,0.0,91,0.00,,,0.00,0,HR-IXP-WINDi_r2_v1.2,2013-09-11 12:55:00,
2013-09-11 06:00:00,62.1,59.7,29.98,South,188,0.0,0.0,92,0.00,,,0.00,0,HR-IXP-WINDi_r2_v1.2,2013-09-11 13:00:00,
2013-09-11 06:05:00,62.3,59.9,29.98,South,188,0.0,0.0,92,0.00,,,0.00,0,HR-IXP-WINDi_r2_v1.2,2013-09-11 13:05:00,
2013-09-11 06:11:00,62.4,59.7,29.98,South,188,0.0,0.0,91,0.00,,,0.00,0,HR-IXP-WINDi_r2_v1.2,2013-09-11 13:11:00,
2013-09-11 06:16:00,62.4,60.0,29.98,South,188,0.0,0.0,92,0.00,,,0.00,0,HR-IXP-WINDi_r2_v1.2,2013-09-11 13:16:00,
2013-09-11 06:21:00,62.6,59.9,29.98,South,188,0.0,0.0,91,0.00,,,0.00,0,HR-IXP-WINDi_r2_v1.2,2013-09-11 13:21:00,
2013-09-11 06:26:00,62.8,60.4,29.99,South,188,0.0,0.0,92,0.00,,,0.00,0,HR-IXP-WINDi_r2_v1.2,2013-09-11 13:26:00,
2013-09-11 06:31:00,62.9,60.2,29.99,South,188,0.0,0.0,91,0.00,,,0.00,0,HR-IXP-WINDi_r2_v1.2,2013-09-11 13:31:00,
2013-09-11 06:36:00,63.0,60.3,29.99,South,188,0.0,0.0,91,0.00,,,0.00,0,HR-IXP-WINDi_r2_v1.2,2013-09-11 13:36:00,
2013-09-11 06:42:00,63.1,60.4,29.99,South,188,0.0,0.0,91,0.00,,,0.00,0,HR-IXP-WINDi_r2_v1.2,2013-09-11 13:42:00,
2013-09-11 06:47:00,63.3,60.6,29.99,South,188,0.0,0.0,91,0.00,,,0.00,7,HR-IXP-WINDi_r2_v1.2,2013-09-11 13:47:00,
2013-09-11 06:52:00,63.5,60.8,29.99,South,188,0.0,0.0,91,0.00,,,0.00,9,HR-IXP-WINDi_r2_v1.2,2013-09-11 13:52:00,
2013-09-11 06:57:00,63.6,60.9,29.99,South,188,0.0,1.0,91,0.00,,,0.00,11,HR-IXP-WINDi_r2_v1.2,2013-09-11 13:57:00,
2013-09-11 07:02:00,63.7,60.6,29.99,South,188,0.0,2.0,90,0.00,,,0.00,11,HR-IXP-WINDi_r2_v1.2,2013-09-11 14:02:00,
2013-09-11 07:07:00,63.8,60.7,29.99,South,188,1.0,2.0,90,0.00,,,0.00,16,HR-IXP-WINDi_r2_v1.2,2013-09-11 14:07:00,
2013-09-11 07:13:00,63.9,60.8,29.99,South,188,0.0,1.0,90,0.00,,,0.00,18,HR-IXP-WINDi_r2_v1.2,2013-09-11 14:13:00,
2013-09-11 07:18:00,63.9,60.8,30.00,South,188,0.0,1.0,90,0.00,,,0.00,18,HR-IXP-WINDi_r2_v1.2,2013-09-11 14:18:00,
2013-09-11 07:23:00,64.0,60.9,30.00,South,188,0.0,1.0,90,0.00,,,0.00,19,HR-IXP-WINDi_r2_v1.2,2013-09-11 14:23:00,
2013-09-11 07:28:00,64.2,60.8,30.00,South,188,2.0,3.0,89,0.00,,,0.00,23,HR-IXP-WINDi_r2_v1.2,2013-09-11 14:28:00,
2013-09-11 07:33:00,64.2,60.8,30.00,South,188,0.0,3.0,89,0.00,,,0.00,26,HR-IXP-WINDi_r2_v1.2,2013-09-11 14:33:00,
2013-09-11 07:38:00,64.2,60.8,30.00,South,188,0.0,2.0,89,0.00,,,0.00,30,HR-IXP-WINDi_r2_v1.2,2013-09-11 14:38:00,
2013-09-11 07:43:00,64.3,60.6,30.00,South,188,0.0,1.0,88,0.00,,,0.00,33,HR-IXP-WINDi_r2_v1.2,2013-09-11 14:43:00,
2013-09-11 07:48:00,64.4,60.7,30.00,South,188,0.0,2.0,88,0.00,,,0.00,33,HR-IXP-WINDi_r2_v1.2,2013-09-11 14:48:00,
2013-09-11 07:53:00,64.5,60.8,30.00,South,188,0.0,2.0,88,0.00,,,0.00,35,HR-IXP-WINDi_r2_v1.2,2013-09-11 14:53:00,
2013-09-11 07:58:00,64.6,60.9,30.00,South,188,0.0,2.0,88,0.00,,,0.00,40,HR-IXP-WINDi_r2_v1.2,2013-09-11 14:58:00,
2013-09-11 08:03:00,64.7,61.0,30.00,South,188,0.0,2.0,88,0.00,,,0.00,46,HR-IXP-WINDi_r2_v1.2,2013-09-11 15:03:00,
2013-09-11 08:09:00,64.6,60.9,30.00,South,188,0.0,2.0,88,0.00,,,0.00,53,HR-IXP-WINDi_r2_v1.2,2013-09-11 15:09:00,
2013-09-11 08:14:00,64.7,60.7,30.00,South,188,0.0,2.0,87,0.00,,,0.00,62,HR-IXP-WINDi_r2_v1.2,2013-09-11 15:14:00,
2013-09-11 08:19:00,65.0,61.3,30.00,South,188,0.0,1.0,88,0.00,,,0.00,72,HR-IXP-WINDi_r2_v1.2,2013-09-11 15:19:00,
2013-09-11 08:24:00,65.1,61.4,30.00,South,188,0.0,1.0,88,0.00,,,0.00,84,HR-IXP-WINDi_r2_v1.2,2013-09-11 15:24:00,
2013-09-11 08:29:00,65.6,61.9,30.00,South,188,0.0,1.0,88,0.00,,,0.00,95,HR-IXP-WINDi_r2_v1.2,2013-09-11 15:29:00,
2013-09-11 08:34:00,65.9,62.2,30.00,South,188,0.0,1.0,88,0.00,,,0.00,86,HR-IXP-WINDi_r2_v1.2,2013-09-11 15:34:00,
2013-09-11 08:40:00,65.6,61.6,30.00,South,187,0.0,2.0,87,0.00,,,0.00,90,HR-IXP-WINDi_r2_v1.2,2013-09-11 15:40:00,
2013-09-11 08:45:00,65.9,61.9,30.00,South,187,0.0,2.0,87,0.00,,,0.00,90,HR-IXP-WINDi_r2_v1.2,2013-09-11 15:45:00,
2013-09-11 08:50:00,65.9,62.2,30.00,South,187,0.0,1.0,88,0.00,,,0.00,98,HR-IXP-WINDi_r2_v1.2,2013-09-11 15:50:00,
2013-09-11 08:55:00,66.0,62.0,30.01,South,187,1.0,2.0,87,0.00,,,0.00,102,HR-IXP-WINDi_r2_v1.2,2013-09-11 15:55:00,
2013-09-11 09:01:00,65.7,61.3,30.01,South,187,0.0,2.0,86,0.00,,,0.00,102,HR-IXP-WINDi_r2_v1.2,2013-09-11 16:01:00,
2013-09-11 09:06:00,65.6,61.2,30.01,South,187,0.0,1.0,86,0.00,,,0.00,113,HR-IXP-WINDi_r2_v1.2,2013-09-11 16:06:00,
2013-09-11 09:11:00,65.9,61.9,30.01,South,187,1.0,1.0,87,0.00,,,0.00,118,HR-IXP-WINDi_r2_v1.2,2013-09-11 16:11:00,
2013-09-11 09:16:00,66.5,62.4,30.01,South,187,0.0,1.0,87,0.00,,,0.00,120,HR-IXP-WINDi_r2_v1.2,2013-09-11 16:16:00,
2013-09-11 09:21:00,66.3,61.9,30.01,South,187,0.0,1.0,86,0.00,,,0.00,120,HR-IXP-WINDi_r2_v1.2,2013-09-11 16:21:00,
2013-09-11 09:27:00,66.1,61.4,30.01,South,187,0.0,2.0,85,0.00,,,0.00,125,HR-IXP-WINDi_r2_v1.2,2013-09-11 16:27:00,
2013-09-11 09:32:00,66.2,61.5,30.01,West,263,2.0,3.0,85,0.00,,,0.00,104,HR-IXP-WINDi_r2_v1.2,2013-09-11 16:32:00,
2013-09-11 09:37:00,66.1,61.4,30.01,West,263,0.0,3.0,85,0.00,,,0.00,104,HR-IXP-WINDi_r2_v1.2,2013-09-11 16:37:00,
2013-09-11 09:42:00,66.7,62.0,30.01,West,263,1.0,2.0,85,0.00,,,0.00,149,HR-IXP-WINDi_r2_v1.2,2013-09-11 16:42:00,
2013-09-11 09:47:00,66.4,61.4,30.01,WSW,243,2.0,6.0,84,0.00,,,0.00,163,HR-IXP-WINDi_r2_v1.2,2013-09-11 16:47:00,
2013-09-11 09:52:00,66.6,61.5,30.01,WSW,243,0.0,6.0,84,0.00,,,0.00,167,HR-IXP-WINDi_r2_v1.2,2013-09-11 16:52:00,
2013-09-11 09:58:00,66.7,61.6,30.01,WSW,244,1.0,4.0,84,0.00,,,0.00,181,HR-IXP-WINDi_r2_v1.2,2013-09-11 16:58:00,
2013-09-11 10:03:00,66.8,61.4,30.02,WSW,244,0.0,4.0,83,0.00,,,0.00,204,HR-IXP-WINDi_r2_v1.2,2013-09-11 17:03:00,
2013-09-11 10:08:00,66.8,61.4,30.02,West,266,4.0,5.0,83,0.00,,,0.00,220,HR-IXP-WINDi_r2_v1.2,2013-09-11 17:08:00,
2013-09-11 10:13:00,67.2,61.8,30.01,West,273,0.0,5.0,83,0.00,,,0.00,246,HR-IXP-WINDi_r2_v1.2,2013-09-11 17:13:00,
2013-09-11 10:18:00,67.6,61.8,30.01,WNW,292,0.0,4.0,82,0.00,,,0.00,258,HR-IXP-WINDi_r2_v1.2,2013-09-11 17:18:00,
2013-09-11 10:23:00,67.7,61.6,30.01,WNW,300,1.0,4.0,81,0.00,,,0.00,229,HR-IXP-WINDi_r2_v1.2,2013-09-11 17:23:00,
2013-09-11 10:29:00,68.3,62.5,30.01,WNW,300,0.0,4.0,82,0.00,,,0.00,227,HR-IXP-WINDi_r2_v1.2,2013-09-11 17:29:00,
2013-09-11 10:34:00,68.9,62.8,30.01,NNW,340,2.0,5.0,81,0.00,,,0.00,272,HR-IXP-WINDi_r2_v1.2,2013-09-11 17:34:00,
2013-09-11 10:39:00,69.1,63.0,30.01,West,269,0.0,5.0,81,0.00,,,0.00,302,HR-IXP-WINDi_r2_v1.2,2013-09-11 17:39:00,
2013-09-11 10:44:00,68.7,62.2,30.01,SW,227,0.0,4.0,80,0.00,,,0.00,267,HR-IXP-WINDi_r2_v1.2,2013-09-11 17:44:00,
2013-09-11 10:49:00,69.4,62.9,30.01,SW,228,2.0,4.0,80,0.00,,,0.00,292,HR-IXP-WINDi_r2_v1.2,2013-09-11 17:49:00,
2013-09-11 10:54:00,69.0,62.5,30.01,WSW,255,1.0,4.0,80,0.00,,,0.00,260,HR-IXP-WINDi_r2_v1.2,2013-09-11 17:54:00,
2013-09-11 11:00:00,69.4,62.9,30.01,SSE,165,1.0,4.0,80,0.00,,,0.00,241,HR-IXP-WINDi_r2_v1.2,2013-09-11 18:00:00,
2013-09-11 11:05:00,70.0,63.1,30.01,South,175,0.0,4.0,79,0.00,,,0.00,246,HR-IXP-WINDi_r2_v1.2,2013-09-11 18:05:00,
2013-09-11 11:10:00,70.5,62.9,30.01,WSW,258,1.0,6.0,77,0.00,,,0.00,288,HR-IXP-WINDi_r2_v1.2,2013-09-11 18:10:00,
2013-09-11 11:15:00,71.1,63.5,30.01,West,259,3.0,6.0,77,0.00,,,0.00,520,HR-IXP-WINDi_r2_v1.2,2013-09-11 18:15:00,
2013-09-11 11:20:00,71.5,63.1,30.01,South,169,2.0,6.0,75,0.00,,,0.00,737,HR-IXP-WINDi_r2_v1.2,2013-09-11 18:20:00,
2013-09-11 11:26:00,71.6,62.8,30.01,SW,227,1.0,5.0,74,0.00,,,0.00,726,HR-IXP-WINDi_r2_v1.2,2013-09-11 18:26:00,
2013-09-11 11:31:00,70.7,62.3,30.00,NNW,344,3.0,5.0,75,0.00,,,0.00,726,HR-IXP-WINDi_r2_v1.2,2013-09-11 18:31:00,
2013-09-11 11:36:00,72.5,63.3,30.00,WSW,251,3.0,5.0,73,0.00,,,0.00,710,HR-IXP-WINDi_r2_v1.2,2013-09-11 18:36:00,
2013-09-11 11:42:00,73.0,64.2,30.00,SSE,164,1.0,5.0,74,0.00,,,0.00,715,HR-IXP-WINDi_r2_v1.2,2013-09-11 18:42:00,
2013-09-11 11:47:00,73.1,64.3,30.00,SW,233,3.0,5.0,74,0.00,,,0.00,715,HR-IXP-WINDi_r2_v1.2,2013-09-11 18:47:00,
2013-09-11 11:52:00,73.6,64.4,30.00,WSW,250,1.0,5.0,73,0.00,,,0.00,719,HR-IXP-WINDi_r2_v1.2,2013-09-11 18:52:00,
2013-09-11 11:57:00,73.6,64.4,30.00,SW,229,4.0,5.0,73,0.00,,,0.00,738,HR-IXP-WINDi_r2_v1.2,2013-09-11 18:57:00,
2013-09-11 12:02:00,73.1,62.7,30.00,WNW,284,2.0,7.0,70,0.00,,,0.00,733,HR-IXP-WINDi_r2_v1.2,2013-09-11 19:02:00,
2013-09-11 12:08:00,73.0,64.2,30.00,South,169,1.0,7.0,74,0.00,,,0.00,737,HR-IXP-WINDi_r2_v1.2,2013-09-11 19:08:00,
2013-09-11 12:13:00,72.3,62.7,30.00,SW,228,4.0,6.0,72,0.00,,,0.00,733,HR-IXP-WINDi_r2_v1.2,2013-09-11 19:13:00,
2013-09-11 12:18:00,72.6,63.0,30.00,SW,229,1.0,6.0,72,0.00,,,0.00,733,HR-IXP-WINDi_r2_v1.2,2013-09-11 19:18:00,
2013-09-11 12:23:00,72.9,63.7,29.99,South,175,1.0,8.0,73,0.00,,,0.00,738,HR-IXP-WINDi_r2_v1.2,2013-09-11 19:23:00,
2013-09-11 12:29:00,75.0,64.5,29.99,South,176,2.0,8.0,70,0.00,,,0.00,742,HR-IXP-WINDi_r2_v1.2,2013-09-11 19:29:00,
2013-09-11 12:34:00,73.8,63.3,29.99,South,187,2.0,7.0,70,0.00,,,0.00,744,HR-IXP-WINDi_r2_v1.2,2013-09-11 19:34:00,
2013-09-11 12:39:00,73.6,64.0,29.99,SW,215,4.0,7.0,72,0.00,,,0.00,744,HR-IXP-WINDi_r2_v1.2,2013-09-11 19:39:00,
2013-09-11 12:44:00,73.5,63.1,29.99,WSW,242,2.0,7.0,70,0.00,,,0.00,747,HR-IXP-WINDi_r2_v1.2,2013-09-11 19:44:00,
2013-09-11 12:49:00,75.6,65.1,29.98,SSE,147,0.0,7.0,70,0.00,,,0.00,752,HR-IXP-WINDi_r2_v1.2,2013-09-11 19:49:00,
2013-09-11 12:55:00,75.6,63.8,29.98,South,171,1.0,7.0,67,0.00,,,0.00,758,HR-IXP-WINDi_r2_v1.2,2013-09-11 19:55:00,
2013-09-11 13:00:00,74.6,63.7,29.98,SSW,200,3.0,8.0,69,0.00,,,0.00,761,HR-IXP-WINDi_r2_v1.2,2013-09-11 20:00:00,
2013-09-11 13:05:00,73.8,62.9,29.98,SW,221,1.0,8.0,69,0.00,,,0.00,758,HR-IXP-WINDi_r2_v1.2,2013-09-11 20:05:00,
2013-09-11 13:10:00,75.6,64.2,29.98,SW,224,2.0,7.0,68,0.00,,,0.00,756,HR-IXP-WINDi_r2_v1.2,2013-09-11 20:10:00,
2013-09-11 13:15:00,75.3,64.4,29.97,SW,229,6.0,7.0,69,0.00,,,0.00,749,HR-IXP-WINDi_r2_v1.2,2013-09-11 20:15:00,
2013-09-11 13:21:00,75.0,63.7,29.97,SW,217,3.0,8.0,68,0.00,,,0.00,745,HR-IXP-WINDi_r2_v1.2,2013-09-11 20:21:00,
2013-09-11 13:26:00,75.9,64.5,29.97,South,175,3.0,8.0,68,0.00,,,0.00,752,HR-IXP-WINDi_r2_v1.2,2013-09-11 20:26:00,
2013-09-11 13:31:00,75.5,63.3,29.97,South,175,6.0,8.0,66,0.00,,,0.00,749,HR-IXP-WINDi_r2_v1.2,2013-09-11 20:31:00,
2013-09-11 13:36:00,75.1,63.3,29.97,West,260,4.0,8.0,67,0.00,,,0.00,742,HR-IXP-WINDi_r2_v1.2,2013-09-11 20:36:00,
2013-09-11 13:41:00,74.9,63.1,29.97,South,180,3.0,9.0,67,0.00,,,0.00,738,HR-IXP-WINDi_r2_v1.2,2013-09-11 20:41:00,
2013-09-11 13:47:00,76.2,64.0,29.96,WSW,248,5.0,9.0,66,0.00,,,0.00,737,HR-IXP-WINDi_r2_v1.2,2013-09-11 20:47:00,
2013-09-11 13:52:00,75.9,64.1,29.96,SW,220,3.0,9.0,67,0.00,,,0.00,729,HR-IXP-WINDi_r2_v1.2,2013-09-11 20:52:00,
2013-09-11 13:57:00,75.2,63.4,29.96,WSW,252,2.0,9.0,67,0.00,,,0.00,724,HR-IXP-WINDi_r2_v1.2,2013-09-11 20:57:00,
2013-09-11 14:02:00,75.4,63.6,29.96,WSW,246,5.0,8.0,67,0.00,,,0.00,722,HR-IXP-WINDi_r2_v1.2,2013-09-11 21:02:00,
2013-09-11 14:07:00,74.5,63.2,29.96,SSW,200,5.0,9.0,68,0.00,,,0.00,719,HR-IXP-WINDi_r2_v1.2,2013-09-11 21:07:00,
2013-09-11 14:12:00,74.6,62.9,29.96,South,175,2.0,11.0,67,0.00,,,0.00,714,HR-IXP-WINDi_r2_v1.2,2013-09-11 21:12:00,
2013-09-11 14:17:00,74.3,63.0,29.96,SW,233,5.0,11.0,68,0.00,,,0.00,707,HR-IXP-WINDi_r2_v1.2,2013-09-11 21:17:00,
2013-09-11 14:23:00,74.8,63.1,29.96,WSW,248,4.0,9.0,67,0.00,,,0.00,694,HR-IXP-WINDi_r2_v1.2,2013-09-11 21:23:00,
2013-09-11 14:28:00,74.5,63.2,29.96,WSW,240,5.0,10.0,68,0.00,,,0.00,691,HR-IXP-WINDi_r2_v1.2,2013-09-11 21:28:00,
2013-09-11 14:33:00,74.7,63.0,29.96,WSW,242,8.0,10.0,67,0.00,,,0.00,680,HR-IXP-WINDi_r2_v1.2,2013-09-11 21:33:00,
2013-09-11 14:38:00,74.8,62.6,29.96,WNW,283,3.0,10.0,66,0.00,,,0.00,673,HR-IXP-WINDi_r2_v1.2,2013-09-11 21:38:00,
2013-09-11 14:43:00,74.7,62.5,29.95,WSW,254,4.0,11.0,66,0.00,,,0.00,661,HR-IXP-WINDi_r2_v1.2,2013-09-11 21:43:00,
2013-09-11 14:48:00,74.4,63.1,29.96,SSW,198,4.0,11.0,68,0.00,,,0.00,652,HR-IXP-WINDi_r2_v1.2,2013-09-11 21:48:00,
2013-09-11 14:53:00,74.5,63.2,29.96,SSW,203,4.0,15.0,68,0.00,,,0.00,645,HR-IXP-WINDi_r2_v1.2,2013-09-11 21:53:00,
2013-09-11 14:59:00,74.2,62.5,29.95,West,267,5.0,15.0,67,0.00,,,0.00,633,HR-IXP-WINDi_r2_v1.2,2013-09-11 21:59:00,
2013-09-11 15:04:00,73.9,62.6,29.95,SW,220,7.0,11.0,68,0.00,,,0.00,626,HR-IXP-WINDi_r2_v1.2,2013-09-11 22:04:00,
2013-09-11 15:09:00,74.0,62.7,29.95,SW,217,5.0,11.0,68,0.00,,,0.00,613,HR-IXP-WINDi_r2_v1.2,2013-09-11 22:09:00,
2013-09-11 15:14:00,74.2,63.3,29.95,SSW,209,3.0,9.0,69,0.00,,,0.00,605,HR-IXP-WINDi_r2_v1.2,2013-09-11 22:14:00,
2013-09-11 15:20:00,73.9,62.6,29.95,SSW,206,6.0,11.0,68,0.00,,,0.00,592,HR-IXP-WINDi_r2_v1.2,2013-09-11 22:20:00,
2013-09-11 15:25:00,73.7,62.8,29.95,SW,222,3.0,11.0,69,0.00,,,0.00,573,HR-IXP-WINDi_r2_v1.2,2013-09-11 22:25:00,
2013-09-11 15:30:00,73.9,63.0,29.95,SW,221,2.0,9.0,69,0.00,,,0.00,543,HR-IXP-WINDi_r2_v1.2,2013-09-11 22:30:00,
2013-09-11 15:36:00,74.0,63.1,29.94,SSW,196,5.0,9.0,69,0.00,,,0.00,476,HR-IXP-WINDi_r2_v1.2,2013-09-11 22:36:00,
2013-09-11 15:41:00,74.5,63.2,29.94,South,182,4.0,9.0,68,0.00,,,0.00,367,HR-IXP-WINDi_r2_v1.2,2013-09-11 22:41:00,
2013-09-11 15:46:00,74.2,62.9,29.94,South,172,5.0,9.0,68,0.00,,,0.00,313,HR-IXP-WINDi_r2_v1.2,2013-09-11 22:46:00,
2013-09-11 15:51:00,75.1,63.8,29.94,SSW,196,3.0,10.0,68,0.00,,,0.00,332,HR-IXP-WINDi_r2_v1.2,2013-09-11 22:51:00,
2013-09-11 15:56:00,74.9,63.1,29.94,SSW,193,6.0,10.0,67,0.00,,,0.00,369,HR-IXP-WINDi_r2_v1.2,2013-09-11 22:56:00,
2013-09-11 16:02:00,75.3,63.5,29.93,SSE,168,6.0,10.0,67,0.00,,,0.00,397,HR-IXP-WINDi_r2_v1.2,2013-09-11 23:02:00,
2013-09-11 16:07:00,75.6,63.8,29.93,South,176,0.0,10.0,67,0.00,,,0.00,406,HR-IXP-WINDi_r2_v1.2,2013-09-11 23:07:00,
2013-09-11 16:12:00,75.2,63.4,29.93,SSW,202,5.0,9.0,67,0.00,,,0.00,418,HR-IXP-WINDi_r2_v1.2,2013-09-11 23:12:00,
2013-09-11 16:17:00,74.8,63.1,29.93,SSW,205,5.0,10.0,67,0.00,,,0.00,424,HR-IXP-WINDi_r2_v1.2,2013-09-11 23:17:00,
2013-09-11 16:22:00,74.9,63.6,29.93,South,171,2.0,10.0,68,0.00,,,0.00,424,HR-IXP-WINDi_r2_v1.2,2013-09-11 23:22:00,
2013-09-11 16:28:00,75.0,63.2,29.93,South,182,2.0,9.0,67,0.00,,,0.00,417,HR-IXP-WINDi_r2_v1.2,2013-09-11 23:28:00,
2013-09-11 16:33:00,75.8,64.0,29.93,SW,236,3.0,9.0,67,0.00,,,0.00,397,HR-IXP-WINDi_r2_v1.2,2013-09-11 23:33:00,
2013-09-11 16:38:00,75.6,63.4,29.92,SW,215,6.0,9.0,66,0.00,,,0.00,369,HR-IXP-WINDi_r2_v1.2,2013-09-11 23:38:00,
2013-09-11 16:43:00,75.3,63.5,29.92,SW,215,3.0,8.0,67,0.00,,,0.00,329,HR-IXP-WINDi_r2_v1.2,2013-09-11 23:43:00,
2013-09-11 16:49:00,75.8,64.0,29.92,SSW,196,1.0,7.0,67,0.00,,,0.00,302,HR-IXP-WINDi_r2_v1.2,2013-09-11 23:49:00,
2013-09-11 16:54:00,76.1,63.4,29.92,West,275,0.0,7.0,65,0.00,,,0.00,237,HR-IXP-WINDi_r2_v1.2,2013-09-11 23:54:00,
2013-09-11 16:59:00,76.7,63.1,29.92,WSW,253,4.0,7.0,63,0.00,,,0.00,320,HR-IXP-WINDi_r2_v1.2,2013-09-11 23:59:00,
2013-09-11 17:05:00,76.5,63.4,29.92,WSW,250,3.0,7.0,64,0.00,,,0.00,299,HR-IXP-WINDi_r2_v1.2,2013-09-12 00:05:00,
2013-09-11 17:10:00,76.3,63.2,29.92,West,264,3.0,7.0,64,0.00,,,0.00,281,HR-IXP-WINDi_r2_v1.2,2013-09-12 00:10:00,
2013-09-11 17:15:00,77.3,64.6,29.92,WNW,285,3.0,7.0,65,0.00,,,0.00,264,HR-IXP-WINDi_r2_v1.2,2013-09-12 00:15:00,
2013-09-11 17:20:00,76.6,63.0,29.92,WSW,254,3.0,8.0,63,0.00,,,0.00,246,HR-IXP-WINDi_r2_v1.2,2013-09-12 00:20:00,
2013-09-11 17:25:00,75.9,62.8,29.92,West,261,3.0,8.0,64,0.00,,,0.00,229,HR-IXP-WINDi_r2_v1.2,2013-09-12 00:25:00,
2013-09-11 17:31:00,76.0,63.3,29.92,WSW,254,5.0,8.0,65,0.00,,,0.00,211,HR-IXP-WINDi_r2_v1.2,2013-09-12 00:31:00,
2013-09-11 17:36:00,75.9,63.2,29.92,West,273,2.0,6.0,65,0.00,,,0.00,199,HR-IXP-WINDi_r2_v1.2,2013-09-12 00:36:00,
2013-09-11 17:41:00,75.8,63.1,29.92,WSW,251,4.0,7.0,65,0.00,,,0.00,181,HR-IXP-WINDi_r2_v1.2,2013-09-12 00:41:00,
2013-09-11 17:46:00,75.3,63.1,29.92,WNW,300,2.0,7.0,66,0.00,,,0.00,155,HR-IXP-WINDi_r2_v1.2,2013-09-12 00:46:00,
2013-09-11 17:52:00,75.2,63.0,29.92,WNW,288,5.0,7.0,66,0.00,,,0.00,132,HR-IXP-WINDi_r2_v1.2,2013-09-12 00:52:00,
2013-09-11 17:57:00,75.0,63.2,29.92,West,265,3.0,7.0,67,0.00,,,0.00,135,HR-IXP-WINDi_r2_v1.2,2013-09-12 00:57:00,
2013-09-11 18:02:00,75.2,63.4,29.92,West,279,2.0,7.0,67,0.00,,,0.00,95,HR-IXP-WINDi_r2_v1.2,2013-09-12 01:02:00,
2013-09-11 18:07:00,74.9,63.1,29.92,WSW,248,3.0,6.0,67,0.00,,,0.00,107,HR-IXP-WINDi_r2_v1.2,2013-09-12 01:07:00,
2013-09-11 18:12:00,74.7,63.4,29.92,NW,309,4.0,6.0,68,0.00,,,0.00,93,HR-IXP-WINDi_r2_v1.2,2013-09-12 01:12:00,
2013-09-11 18:18:00,74.3,63.4,29.92,WNW,300,2.0,6.0,69,0.00,,,0.00,76,HR-IXP-WINDi_r2_v1.2,2013-09-12 01:18:00,
2013-09-11 18:23:00,73.9,63.0,29.92,West,272,2.0,7.0,69,0.00,,,0.00,62,HR-IXP-WINDi_r2_v1.2,2013-09-12 01:23:00,
2013-09-11 18:28:00,73.7,63.2,29.92,WNW,297,3.0,7.0,70,0.00,,,0.00,47,HR-IXP-WINDi_r2_v1.2,2013-09-12 01:28:00,
2013-09-11 18:33:00,73.4,63.0,29.92,WSW,250,5.0,6.0,70,0.00,,,0.00,39,HR-IXP-WINDi_r2_v1.2,2013-09-12 01:33:00,
2013-09-11 18:38:00,72.8,62.8,29.92,WSW,255,1.0,7.0,71,0.00,,,0.00,26,HR-IXP-WINDi_r2_v1.2,2013-09-12 01:38:00,
2013-09-11 18:44:00,72.4,62.8,29.92,SW,235,4.0,7.0,72,0.00,,,0.00,19,HR-IXP-WINDi_r2_v1.2,2013-09-12 01:44:00,
2013-09-11 18:49:00,71.8,62.2,29.92,West,267,5.0,8.0,72,0.00,,,0.00,14,HR-IXP-WINDi_r2_v1.2,2013-09-12 01:49:00,
2013-09-11 18:54:00,71.3,62.1,29.92,NW,313,2.0,8.0,73,0.00,,,0.00,9,HR-IXP-WINDi_r2_v1.2,2013-09-12 01:54:00,
2013-09-11 18:59:00,70.9,62.1,29.92,West,279,3.0,8.0,74,0.00,,,0.00,5,HR-IXP-WINDi_r2_v1.2,2013-09-12 01:59:00,
2013-09-11 19:05:00,70.5,62.1,29.92,WNW,290,6.0,8.0,75,0.00,,,0.00,0,HR-IXP-WINDi_r2_v1.2,2013-09-12 02:05:00,
2013-09-11 19:10:00,70.1,62.1,29.92,West,273,5.0,8.0,76,0.00,,,0.00,0,HR-IXP-WINDi_r2_v1.2,2013-09-12 02:10:00,
2013-09-11 19:15:00,69.7,61.7,29.92,West,275,2.0,8.0,76,0.00,,,0.00,0,HR-IXP-WINDi_r2_v1.2,2013-09-12 02:15:00,
2013-09-11 19:20:00,69.5,61.9,29.92,WNW,285,4.0,7.0,77,0.00,,,0.00,0,HR-IXP-WINDi_r2_v1.2,2013-09-12 02:20:00,
2013-09-11 19:25:00,69.3,62.1,29.92,West,277,7.0,7.0,78,0.00,,,0.00,0,HR-IXP-WINDi_r2_v1.2,2013-09-12 02:25:00,
2013-09-11 19:30:00,69.0,61.8,29.93,West,269,2.0,7.0,78,0.00,,,0.00,0,HR-IXP-WINDi_r2_v1.2,2013-09-12 02:30:00,
2013-09-11 19:36:00,68.8,62.0,29.93,WNW,294,4.0,5.0,79,0.00,,,0.00,0,HR-IXP-WINDi_r2_v1.2,2013-09-12 02:36:00,
2013-09-11 19:41:00,68.6,61.8,29.93,WNW,284,2.0,7.0,79,0.00,,,0.00,0,HR-IXP-WINDi_r2_v1.2,2013-09-12 02:41:00,
2013-09-11 19:46:00,68.4,61.9,29.93,West,267,1.0,7.0,80,0.00,,,0.00,0,HR-IXP-WINDi_r2_v1.2,2013-09-12 02:46:00,
2013-09-11 19:51:00,68.3,61.8,29.93,West,278,1.0,5.0,80,0.00,,,0.00,0,HR-IXP-WINDi_r2_v1.2,2013-09-12 02:51:00,
2013-09-11 19:56:00,68.1,61.6,29.93,WSW,257,1.0,5.0,80,0.00,,,0.00,0,HR-IXP-WINDi_r2_v1.2,2013-09-12 02:56:00,
2013-09-11 20:02:00,68.0,61.9,29.93,WSW,258,2.0,5.0,81,0.00,,,0.00,0,HR-IXP-WINDi_r2_v1.2,2013-09-12 03:02:00,
2013-09-11 20:07:00,67.8,61.7,29.93,WNW,282,2.0,5.0,81,0.00,,,0.00,0,HR-IXP-WINDi_r2_v1.2,2013-09-12 03:07:00,
2013-09-11 20:12:00,67.7,61.6,29.93,West,279,4.0,5.0,81,0.00,,,0.00,0,HR-IXP-WINDi_r2_v1.2,2013-09-12 03:12:00,
2013-09-11 20:17:00,67.6,61.5,29.93,West,265,3.0,6.0,81,0.00,,,0.00,0,HR-IXP-WINDi_r2_v1.2,2013-09-12 03:17:00,
2013-09-11 20:22:00,67.4,61.6,29.94,West,280,2.0,6.0,82,0.00,,,0.00,0,HR-IXP-WINDi_r2_v1.2,2013-09-12 03:22:00,
2013-09-11 20:28:00,67.3,61.6,29.94,West,275,1.0,4.0,82,0.00,,,0.00,0,HR-IXP-WINDi_r2_v1.2,2013-09-12 03:28:00,
2013-09-11 20:33:00,67.2,61.5,29.94,West,273,1.0,5.0,82,0.00,,,0.00,0,HR-IXP-WINDi_r2_v1.2,2013-09-12 03:33:00,
2013-09-11 20:38:00,67.1,61.4,29.94,West,273,2.0,5.0,82,0.00,,,0.00,0,HR-IXP-WINDi_r2_v1.2,2013-09-12 03:38:00,
2013-09-11 20:43:00,67.0,61.6,29.94,West,271,2.0,6.0,83,0.00,,,0.00,0,HR-IXP-WINDi_r2_v1.2,2013-09-12 03:43:00,
2013-09-11 20:48:00,66.8,61.4,29.94,WNW,292,2.0,6.0,83,0.00,,,0.00,0,HR-IXP-WINDi_r2_v1.2,2013-09-12 03:48:00,
2013-09-11 20:53:00,66.8,61.4,29.94,West,281,3.0,5.0,83,0.00,,,0.00,0,HR-IXP-WINDi_r2_v1.2,2013-09-12 03:53:00,
2013-09-11 20:59:00,66.7,61.3,29.94,WNW,296,2.0,5.0,83,0.00,,,0.00,0,HR-IXP-WINDi_r2_v1.2,2013-09-12 03:59:00,
2013-09-11 21:01:00,66.7,61.3,29.94,WNW,296,1.0,5.0,83,0.00,,,0.00,0,HR-IXP-WINDi_r2_v1.2,2013-09-12 04:01:00,
2013-09-11 21:06:00,66.6,61.2,29.95,West,273,1.0,4.0,83,0.00,,,0.00,0,HR-IXP-WINDi_r2_v1.2,2013-09-12 04:06:00,
2013-09-11 21:11:00,66.6,61.2,29.95,WNW,289,3.0,5.0,83,0.00,,,0.00,0,HR-IXP-WINDi_r2_v1.2,2013-09-12 04:11:00,
2013-09-11 21:16:00,66.6,61.2,29.95,WNW,288,1.0,5.0,83,0.00,,,0.00,0,HR-IXP-WINDi_r2_v1.2,2013-09-12 04:16:00,
2013-09-11 21:21:00,66.6,61.2,29.95,WSW,254,3.0,5.0,83,0.00,,,0.00,0,HR-IXP-WINDi_r2_v1.2,2013-09-12 04:21:00,
2013-09-11 21:26:00,66.6,61.2,29.95,NW,324,1.0,5.0,83,0.00,,,0.00,0,HR-IXP-WINDi_r2_v1.2,2013-09-12 04:26:00,
2013-09-11 21:31:00,66.5,61.1,29.95,NW,319,2.0,4.0,83,0.00,,,0.00,0,HR-IXP-WINDi_r2_v1.2,2013-09-12 04:31:00,
2013-09-11 21:37:00,66.4,61.0,29.95,NW,304,0.0,5.0,83,0.00,,,0.00,0,HR-IXP-WINDi_r2_v1.2,2013-09-12 04:37:00,
2013-09-11 21:42:00,66.4,61.4,29.95,NW,312,2.0,5.0,84,0.00,,,0.00,0,HR-IXP-WINDi_r2_v1.2,2013-09-12 04:42:00,
2013-09-11 21:47:00,66.5,61.1,29.95,NW,313,1.0,3.0,83,0.00,,,0.00,0,HR-IXP-WINDi_r2_v1.2,2013-09-12 04:47:00,
2013-09-11 21:53:00,66.4,61.0,29.95,NW,313,1.0,3.0,83,0.00,,,0.00,0,HR-IXP-WINDi_r2_v1.2,2013-09-12 04:53:00,
2013-09-11 21:58:00,66.4,61.0,29.95,NW,319,2.0,3.0,83,0.00,,,0.00,0,HR-IXP-WINDi_r2_v1.2,2013-09-12 04:58:00,
2013-09-11 22:03:00,66.3,60.9,29.95,NW,319,0.0,3.0,83,0.00,,,0.00,0,HR-IXP-WINDi_r2_v1.2,2013-09-12 05:03:00,
2013-09-11 22:08:00,66.2,61.2,29.95,NNW,329,0.0,4.0,84,0.00,,,0.00,0,HR-IXP-WINDi_r2_v1.2,2013-09-12 05:08:00,
2013-09-11 22:13:00,66.1,61.1,29.95,NNW,329,1.0,4.0,84,0.00,,,0.00,0,HR-IXP-WINDi_r2_v1.2,2013-09-12 05:13:00,
2013-09-11 22:18:00,66.1,61.4,29.95,NNW,329,0.0,4.0,85,0.00,,,0.00,0,HR-IXP-WINDi_r2_v1.2,2013-09-12 05:18:00,
2013-09-11 22:23:00,65.9,61.2,29.95,NW,319,0.0,4.0,85,0.00,,,0.00,0,HR-IXP-WINDi_r2_v1.2,2013-09-12 05:23:00,
2013-09-11 22:28:00,65.9,61.2,29.95,NW,306,1.0,4.0,85,0.00,,,0.00,0,HR-IXP-WINDi_r2_v1.2,2013-09-12 05:28:00,
2013-09-11 22:34:00,65.9,61.2,29.95,NW,317,1.0,4.0,85,0.00,,,0.00,0,HR-IXP-WINDi_r2_v1.2,2013-09-12 05:34:00,
2013-09-11 22:39:00,65.9,61.2,29.95,NW,317,1.0,3.0,85,0.00,,,0.00,0,HR-IXP-WINDi_r2_v1.2,2013-09-12 05:39:00,
2013-09-11 22:44:00,65.9,61.2,29.95,NW,317,0.0,4.0,85,0.00,,,0.00,0,HR-IXP-WINDi_r2_v1.2,2013-09-12 05:44:00,
2013-09-11 22:49:00,65.9,61.2,29.95,NNW,327,0.0,4.0,85,0.00,,,0.00,0,HR-IXP-WINDi_r2_v1.2,2013-09-12 05:49:00,
2013-09-11 22:54:00,65.8,61.1,29.95,NNW,327,2.0,4.0,85,0.00,,,0.00,0,HR-IXP-WINDi_r2_v1.2,2013-09-12 05:54:00,
2013-09-11 22:59:00,65.7,61.3,29.95,NNW,327,2.0,3.0,86,0.00,,,0.00,0,HR-IXP-WINDi_r2_v1.2,2013-09-12 05:59:00,
2013-09-11 23:05:00,65.7,61.3,29.95,NNW,327,0.0,3.0,86,0.00,,,0.00,0,HR-IXP-WINDi_r2_v1.2,2013-09-12 06:05:00,
2013-09-11 23:10:00,65.7,61.3,29.95,NNW,327,0.0,3.0,86,0.00,,,0.00,0,HR-IXP-WINDi_r2_v1.2,2013-09-12 06:10:00,
2013-09-11 23:15:00,65.9,61.2,29.95,NNW,327,0.0,3.0,85,0.00,,,0.00,0,HR-IXP-WINDi_r2_v1.2,2013-09-12 06:15:00,
2013-09-11 23:20:00,65.7,61.0,29.95,NNW,327,0.0,2.0,85,0.00,,,0.00,0,HR-IXP-WINDi_r2_v1.2,2013-09-12 06:20:00,
2013-09-11 23:25:00,65.7,61.3,29.95,NNW,327,0.0,3.0,86,0.00,,,0.00,0,HR-IXP-WINDi_r2_v1.2,2013-09-12 06:25:00,
2013-09-11 23:30:00,66.1,61.4,29.95,NNW,327,0.0,3.0,85,0.00,,,0.00,0,HR-IXP-WINDi_r2_v1.2,2013-09-12 06:30:00,
2013-09-11 23:35:00,65.8,61.1,29.95,NNW,327,1.0,3.0,85,0.00,,,0.00,0,HR-IXP-WINDi_r2_v1.2,2013-09-12 06:35:00,
2013-09-11 23:40:00,65.7,61.3,29.95,NNW,327,2.0,3.0,86,0.00,,,0.00,0,HR-IXP-WINDi_r2_v1.2,2013-09-12 06:40:00,
2013-09-11 23:46:00,65.5,61.1,29.95,NNW,327,0.0,3.0,86,0.00,,,0.00,0,HR-IXP-WINDi_r2_v1.2,2013-09-12 06:46:00,
2013-09-11 23:51:00,65.5,61.5,29.95,NNW,327,0.0,3.0,87,0.00,,,0.00,0,HR-IXP-WINDi_r2_v1.2,2013-09-12 06:51:00,
2013-09-11 23:56:00,65.8,61.4,29.95,NNW,327,0.0,2.0,86,0.00,,,0.00,0,HR-IXP-WINDi_r2_v1.2,2013-09-12 06:56:00,